createdAt,value
2019-03-09T00:00:35.053Z,69.99
2019-03-09T00:03:03.454Z,69.80
2019-03-09T00:05:31.851Z,69.62
2019-03-09T00:08:00.271Z,69.39
2019-03-09T00:10:28.649Z,69.39
2019-03-09T00:12:57.053Z,69.43
2019-03-09T00:15:25.634Z,68.70
2019-03-09T00:17:54.012Z,68.80
2019-03-09T00:20:22.427Z,68.62
2019-03-09T00:23:08.632Z,67.98
2019-03-09T00:25:38.832Z,67.93
2019-03-09T00:28:08.852Z,67.89
2019-03-09T00:30:44.685Z,67.97
2019-03-09T00:33:13.054Z,67.75
2019-03-09T00:35:41.469Z,67.94
2019-03-09T00:38:09.882Z,67.90
2019-03-09T00:40:38.261Z,68.29
2019-03-09T00:43:06.656Z,68.25
2019-03-09T00:45:35.064Z,68.23
2019-03-09T00:48:03.540Z,68.00
2019-03-09T00:50:32.219Z,67.55
2019-03-09T00:53:00.609Z,67.74
2019-03-09T00:55:29.026Z,67.29
2019-03-09T00:58:00.193Z,66.39
2019-03-09T01:00:28.618Z,66.30
2019-03-09T01:02:57.025Z,66.62
2019-03-09T01:05:25.472Z,66.89
2019-03-09T01:07:53.997Z,66.54
2019-03-09T01:10:22.462Z,66.22
2019-03-09T01:12:50.870Z,65.79
2019-03-09T01:15:19.394Z,65.64
2019-03-09T01:17:47.879Z,64.85
2019-03-09T01:20:16.801Z,64.53
2019-03-09T01:22:45.196Z,64.07
2019-03-09T01:25:14.033Z,64.37
2019-03-09T01:27:42.487Z,64.18
2019-03-09T01:30:14.126Z,63.84
2019-03-09T01:32:42.617Z,63.49
2019-03-09T01:35:11.112Z,63.41
2019-03-09T01:37:39.878Z,63.41
2019-03-09T01:40:11.345Z,63.77
2019-03-09T01:42:39.830Z,64.19
2019-03-09T01:45:13.718Z,64.04
2019-03-09T01:47:42.129Z,64.52
2019-03-09T01:50:10.761Z,64.54
2019-03-09T01:52:39.268Z,64.95
2019-03-09T01:55:10.208Z,65.24
2019-03-09T01:57:38.685Z,65.50
2019-03-09T02:00:09.902Z,65.22
2019-03-09T02:02:38.291Z,65.09
2019-03-09T02:05:08.520Z,64.79
2019-03-09T02:07:37.017Z,65.01
2019-03-09T02:10:11.007Z,64.89
2019-03-09T02:12:39.485Z,64.93
2019-03-09T02:15:12.919Z,65.17
2019-03-09T02:17:41.326Z,65.53
2019-03-09T02:20:17.352Z,65.12
2019-03-09T02:22:45.821Z,65.01
2019-03-09T02:25:14.603Z,64.94
2019-03-09T02:27:43.002Z,64.99
2019-03-09T02:30:20.599Z,65.23
2019-03-09T02:32:48.991Z,65.25
2019-03-09T02:35:18.367Z,65.36
2019-03-09T02:37:46.826Z,65.39
2019-03-09T02:40:23.353Z,64.88
2019-03-09T02:42:51.779Z,64.79
2019-03-09T02:45:23.104Z,64.84
2019-03-09T02:47:51.467Z,64.67
2019-03-09T02:50:20.035Z,65.26
2019-03-09T02:52:48.405Z,64.94
2019-03-09T02:55:16.958Z,65.40
2019-03-09T02:57:45.345Z,65.76
2019-03-09T03:00:21.223Z,66.07
2019-03-09T03:02:51.309Z,66.38
2019-03-09T03:05:19.781Z,66.42
2019-03-09T03:07:48.250Z,66.82
2019-03-09T03:10:16.730Z,66.60
2019-03-09T03:12:45.106Z,66.45
2019-03-09T03:15:28.273Z,66.59
2019-03-09T03:17:56.708Z,66.77
2019-03-09T03:20:25.272Z,67.31
2019-03-09T03:22:53.659Z,67.73
2019-03-09T03:25:22.050Z,68.49
2019-03-09T03:27:50.517Z,68.40
2019-03-09T03:30:18.899Z,69.29
2019-03-09T03:32:47.466Z,69.12
2019-03-09T03:35:15.953Z,68.79
2019-03-09T03:37:44.361Z,68.54
2019-03-09T03:40:13.409Z,69.04
2019-03-09T03:42:41.943Z,69.56
2019-03-09T03:45:12.542Z,69.00
2019-03-09T03:47:41.009Z,69.17
2019-03-09T03:50:09.588Z,67.31
2019-03-09T03:52:37.963Z,66.21
2019-03-09T03:55:08.595Z,66.75
2019-03-09T03:57:37.139Z,66.15
2019-03-09T04:00:08.591Z,66.79
2019-03-09T04:02:37.224Z,67.02
2019-03-09T04:05:06.355Z,67.52
2019-03-09T04:07:35.484Z,67.64
2019-03-09T04:10:05.413Z,67.83
2019-03-09T04:12:34.014Z,68.46
2019-03-09T04:15:02.455Z,68.32
2019-03-09T04:17:30.869Z,68.74
2019-03-09T04:19:59.247Z,69.11
2019-03-09T04:22:27.646Z,69.47
2019-03-09T04:24:56.146Z,71.21
2019-03-09T04:27:24.518Z,73.02
2019-03-09T04:29:52.980Z,73.92
2019-03-09T04:32:21.359Z,73.35
2019-03-09T04:34:49.764Z,73.82
2019-03-09T04:37:18.160Z,74.49
2019-03-09T04:39:46.565Z,74.45
2019-03-09T04:42:15.020Z,74.66
2019-03-09T04:44:43.415Z,73.94
2019-03-09T04:47:11.801Z,75.55
2019-03-09T04:49:40.202Z,75.14
2019-03-09T04:52:08.586Z,75.46
2019-03-09T04:54:36.985Z,76.67
2019-03-09T04:57:05.356Z,78.25
2019-03-09T04:59:33.750Z,79.18
2019-03-09T05:02:02.134Z,79.24
2019-03-09T05:04:38.899Z,79.56
2019-03-09T05:07:07.294Z,80.60
2019-03-09T05:09:44.721Z,81.04
2019-03-09T05:12:13.108Z,82.11
2019-03-09T05:14:41.595Z,81.78
2019-03-09T05:17:09.987Z,82.17
2019-03-09T05:19:38.402Z,82.99
2019-03-09T05:22:06.793Z,82.84
2019-03-09T05:24:35.183Z,82.75
2019-03-09T05:27:03.583Z,83.63
2019-03-09T05:29:32.012Z,84.11
2019-03-09T05:32:00.371Z,84.80
2019-03-09T05:34:28.783Z,85.19
2019-03-09T05:36:57.180Z,85.75
2019-03-09T05:39:25.570Z,85.98
2019-03-09T05:41:53.976Z,86.52
2019-03-09T05:44:22.362Z,86.97
2019-03-09T05:46:50.825Z,87.30
2019-03-09T05:49:19.227Z,87.60
2019-03-09T05:52:19.208Z,87.81
2019-03-09T05:54:47.587Z,87.59
2019-03-09T05:57:15.976Z,87.67
2019-03-09T05:59:44.358Z,88.39
2019-03-09T06:03:34.681Z,89.10
2019-03-09T06:06:03.188Z,89.38
2019-03-09T06:08:31.651Z,89.05
2019-03-09T06:11:00.068Z,89.43
2019-03-09T06:13:28.482Z,88.85
2019-03-09T06:15:56.870Z,89.15
2019-03-09T06:18:25.254Z,89.11
2019-03-09T06:20:53.638Z,88.49
2019-03-09T06:23:22.111Z,88.29
2019-03-09T06:25:50.495Z,88.15
2019-03-09T06:28:18.906Z,87.87
2019-03-09T06:30:47.286Z,87.82
2019-03-09T06:33:21.126Z,87.58
2019-03-09T06:36:10.062Z,87.80
2019-03-09T06:38:56.655Z,87.77
2019-03-09T06:41:51.401Z,88.00
2019-03-09T06:44:19.811Z,88.46
2019-03-09T06:46:50.013Z,88.56
2019-03-09T06:49:18.489Z,89.16
2019-03-09T06:51:46.891Z,89.37
2019-03-09T06:54:15.312Z,89.75
2019-03-09T06:56:43.704Z,90.09
2019-03-09T06:59:12.120Z,90.13
2019-03-09T07:01:40.514Z,90.07
2019-03-09T07:04:08.916Z,90.18
2019-03-09T07:06:37.314Z,90.39
2019-03-09T07:09:06.566Z,90.21
2019-03-09T07:11:34.963Z,90.08
2019-03-09T07:14:39.242Z,90.29
2019-03-09T07:17:07.636Z,90.09
2019-03-09T07:19:36.131Z,90.04
2019-03-09T07:22:04.531Z,89.99
2019-03-09T07:24:32.996Z,89.73
2019-03-09T07:27:01.387Z,89.46
2019-03-09T07:29:29.775Z,89.18
2019-03-09T07:31:58.242Z,89.38
2019-03-09T07:34:27.482Z,89.40
2019-03-09T07:36:55.939Z,89.05
2019-03-09T07:39:24.337Z,88.65
2019-03-09T07:41:52.721Z,88.46
2019-03-09T07:44:21.106Z,88.11
2019-03-09T07:46:49.505Z,88.18
2019-03-09T07:49:17.924Z,88.17
2019-03-09T07:51:46.974Z,88.70
2019-03-09T07:54:15.365Z,88.57
2019-03-09T07:56:43.775Z,88.08
2019-03-09T07:59:12.334Z,88.07
2019-03-09T08:01:40.732Z,87.75
2019-03-09T08:04:11.101Z,87.62
2019-03-09T08:06:39.521Z,87.31
2019-03-09T08:09:08.144Z,86.92
2019-03-09T08:11:36.575Z,87.05
2019-03-09T08:14:05.040Z,86.56
2019-03-09T08:16:35.942Z,85.99
2019-03-09T08:19:03.564Z,85.91
2019-03-09T08:21:32.050Z,85.97
2019-03-09T08:24:00.425Z,86.13
2019-03-09T08:26:28.847Z,85.27
2019-03-09T08:28:57.243Z,84.50
2019-03-09T08:31:25.695Z,84.40
2019-03-09T08:33:54.092Z,83.88
2019-03-09T08:36:22.702Z,84.53
2019-03-09T08:38:51.110Z,84.32
2019-03-09T08:41:19.541Z,84.15
2019-03-09T08:43:47.934Z,84.13
2019-03-09T08:46:16.330Z,84.32
2019-03-09T08:48:44.752Z,83.41
2019-03-09T08:51:13.137Z,83.96
2019-03-09T08:53:42.596Z,81.39
2019-03-09T08:56:10.993Z,82.29
2019-03-09T08:58:39.478Z,82.14
2019-03-09T09:01:07.990Z,82.76
2019-03-09T09:03:36.364Z,81.56
2019-03-09T09:06:04.762Z,81.39
2019-03-09T09:08:33.186Z,78.18
2019-03-09T09:11:01.648Z,81.78
2019-03-09T09:13:30.088Z,78.20
2019-03-09T09:15:58.502Z,77.13
2019-03-09T09:18:26.920Z,77.13
2019-03-09T09:20:55.308Z,77.67
2019-03-09T09:23:23.787Z,77.67
2019-03-09T09:25:52.225Z,78.30
2019-03-09T09:28:20.618Z,78.30
2019-03-09T09:30:49.071Z,75.19
2019-03-09T09:33:17.494Z,75.44
2019-03-09T09:35:46.134Z,78.06
2019-03-09T09:38:14.597Z,77.11
2019-03-09T09:40:43.000Z,75.88
2019-03-09T09:43:11.497Z,75.88
2019-03-09T09:45:39.960Z,77.01
2019-03-09T09:48:08.553Z,76.97
2019-03-09T09:50:36.927Z,77.17
2019-03-09T09:53:05.490Z,76.49
2019-03-09T09:55:33.874Z,76.68
2019-03-09T09:58:02.277Z,76.66
2019-03-09T10:00:30.756Z,75.80
2019-03-09T10:02:59.320Z,75.80
2019-03-09T10:05:27.793Z,75.97
2019-03-09T10:07:56.175Z,76.80
2019-03-09T10:10:24.693Z,76.32
2019-03-09T10:12:55.739Z,76.38
2019-03-09T10:15:25.656Z,76.05
2019-03-09T10:17:54.142Z,75.92
2019-03-09T10:20:22.767Z,76.18
2019-03-09T10:22:51.282Z,76.05
2019-03-09T10:25:19.739Z,75.68
2019-03-09T10:27:48.287Z,76.29
2019-03-09T10:30:23.478Z,75.48
2019-03-09T10:32:52.007Z,75.75
2019-03-09T10:35:20.639Z,75.72
2019-03-09T10:37:49.883Z,75.05
2019-03-09T10:40:19.003Z,75.05
2019-03-09T10:42:47.428Z,74.89
2019-03-09T10:45:20.019Z,74.77
2019-03-09T10:47:48.658Z,74.78
2019-03-09T10:50:17.793Z,75.51
2019-03-09T10:52:46.342Z,75.48
2019-03-09T10:55:17.812Z,75.63
2019-03-09T10:57:46.187Z,76.03
2019-03-09T11:00:17.629Z,76.26
2019-03-09T11:02:46.039Z,76.51
2019-03-09T11:05:14.500Z,76.57
2019-03-09T11:07:42.897Z,75.68
2019-03-09T11:10:11.803Z,75.56
2019-03-09T11:12:40.461Z,75.49
2019-03-09T11:15:09.205Z,75.29
2019-03-09T11:17:37.592Z,74.60
2019-03-09T11:20:09.219Z,74.77
2019-03-09T11:22:37.625Z,75.04
2019-03-09T11:25:06.677Z,75.03
2019-03-09T11:27:35.097Z,75.03
2019-03-09T11:30:04.191Z,75.27
2019-03-09T11:32:32.611Z,74.95
2019-03-09T11:35:01.013Z,74.74
2019-03-09T11:37:29.420Z,75.07
2019-03-09T11:39:57.921Z,74.43
2019-03-09T11:42:26.332Z,74.74
2019-03-09T11:44:54.764Z,74.74
2019-03-09T11:47:23.290Z,75.49
2019-03-09T11:49:51.715Z,75.22
2019-03-09T11:52:20.712Z,75.36
2019-03-09T11:54:49.160Z,75.12
2019-03-09T11:57:17.578Z,76.78
2019-03-09T11:59:46.009Z,76.24
2019-03-09T12:02:14.432Z,74.92
2019-03-09T12:04:46.695Z,74.81
2019-03-09T12:07:13.016Z,75.66
2019-03-09T12:09:41.455Z,74.98
2019-03-09T12:12:09.855Z,73.10
2019-03-09T12:14:38.353Z,73.10
2019-03-09T12:17:12.417Z,73.77
2019-03-09T12:19:37.007Z,72.03
2019-03-09T12:22:05.492Z,71.59
2019-03-09T12:24:33.954Z,71.58
2019-03-09T12:27:02.445Z,72.61
2019-03-09T12:29:30.918Z,72.25
2019-03-09T12:31:59.358Z,72.95
2019-03-09T12:34:27.752Z,71.76
2019-03-09T12:36:56.205Z,73.01
2019-03-09T12:39:24.608Z,73.89
2019-03-09T12:41:53.047Z,74.12
2019-03-09T12:44:21.508Z,75.59
2019-03-09T12:46:49.928Z,76.40
2019-03-09T12:49:18.644Z,76.02
2019-03-09T12:51:47.075Z,76.94
2019-03-09T12:54:15.473Z,77.44
2019-03-09T12:56:43.901Z,77.77
2019-03-09T12:59:12.295Z,79.58
2019-03-09T13:01:40.730Z,80.81
2019-03-09T13:04:10.847Z,81.05
2019-03-09T13:06:39.315Z,81.51
2019-03-09T13:09:08.131Z,80.88
2019-03-09T13:11:36.640Z,80.06
2019-03-09T13:14:05.249Z,80.06
2019-03-09T13:16:33.624Z,79.77
2019-03-09T13:19:02.025Z,80.65
2019-03-09T13:21:30.446Z,80.52
2019-03-09T13:23:58.870Z,81.02
2019-03-09T13:26:27.389Z,80.22
2019-03-09T13:28:55.786Z,80.38
2019-03-09T13:31:24.168Z,80.38
2019-03-09T13:33:52.569Z,80.11
2019-03-09T13:36:20.981Z,81.86
2019-03-09T13:38:49.401Z,81.86
2019-03-09T13:41:17.824Z,81.68
2019-03-09T13:43:46.268Z,82.04
2019-03-09T13:46:14.682Z,82.04
2019-03-09T13:48:43.123Z,83.14
2019-03-09T13:51:11.502Z,83.15
2019-03-09T13:53:39.921Z,83.25
2019-03-09T13:56:08.314Z,84.98
2019-03-09T13:58:36.708Z,84.98
2019-03-09T14:01:05.171Z,87.26
2019-03-09T14:03:33.567Z,87.83
2019-03-09T14:06:01.969Z,87.83
2019-03-09T14:08:30.426Z,88.63
2019-03-09T14:10:58.854Z,89.66
2019-03-09T14:13:27.514Z,90.37
2019-03-09T14:15:55.931Z,91.24
2019-03-09T14:18:24.325Z,91.72
2019-03-09T14:20:52.782Z,92.49
2019-03-09T14:23:21.181Z,90.77
2019-03-09T14:25:49.568Z,89.73
2019-03-09T14:28:17.966Z,89.73
2019-03-09T14:30:46.443Z,89.26
2019-03-09T14:33:14.826Z,89.24
2019-03-09T14:35:43.339Z,89.74
2019-03-09T14:38:11.748Z,89.83
2019-03-09T14:40:40.180Z,89.21
2019-03-09T14:43:08.587Z,90.29
2019-03-09T14:45:37.008Z,91.82
2019-03-09T14:48:05.435Z,90.08
2019-03-09T14:50:33.822Z,91.02
2019-03-09T14:53:02.291Z,90.47
2019-03-09T14:55:30.770Z,89.55
2019-03-09T14:57:59.172Z,87.33
2019-03-09T15:00:28.179Z,86.16
2019-03-09T15:02:56.707Z,86.16
2019-03-09T15:05:25.256Z,84.13
2019-03-09T15:07:53.724Z,80.43
2019-03-09T15:10:22.307Z,79.47
2019-03-09T15:12:50.752Z,80.18
2019-03-09T15:15:20.482Z,80.92
2019-03-09T15:17:48.938Z,80.48
2019-03-09T15:20:17.655Z,80.17
2019-03-09T15:22:46.087Z,80.29
2019-03-09T15:25:16.235Z,80.29
2019-03-09T15:27:44.766Z,81.09
2019-03-09T15:30:18.000Z,81.36
2019-03-09T15:32:46.463Z,80.42
2019-03-09T15:35:16.621Z,80.42
2019-03-09T15:37:45.384Z,80.83
2019-03-09T15:40:17.772Z,80.33
2019-03-09T15:42:46.208Z,79.91
2019-03-09T15:45:16.241Z,79.91
2019-03-09T15:47:44.703Z,80.45
2019-03-09T15:50:17.497Z,80.05
2019-03-09T15:52:45.908Z,80.63
2019-03-09T15:55:14.444Z,81.01
2019-03-09T15:57:42.851Z,80.20
2019-03-09T16:00:14.152Z,79.97
2019-03-09T16:02:42.621Z,80.74
2019-03-09T16:05:11.159Z,79.99
2019-03-09T16:07:39.636Z,79.99
2019-03-09T16:10:11.378Z,80.47
2019-03-09T16:12:39.782Z,80.36
2019-03-09T16:15:10.464Z,79.55
2019-03-09T16:17:38.867Z,79.46
2019-03-09T16:20:15.558Z,78.82
2019-03-09T16:22:43.978Z,79.08
2019-03-09T16:25:12.619Z,79.34
2019-03-09T16:27:41.080Z,79.34
2019-03-09T16:30:15.134Z,78.98
2019-03-09T16:32:43.556Z,77.34
2019-03-09T16:35:12.216Z,78.35
2019-03-09T16:37:40.623Z,77.73
2019-03-09T16:40:15.115Z,77.73
2019-03-09T16:42:43.511Z,77.37
2019-03-09T16:45:13.564Z,77.28
2019-03-09T16:47:41.995Z,77.18
2019-03-09T16:50:17.707Z,75.60
2019-03-09T16:52:46.216Z,75.60
2019-03-09T16:55:14.858Z,77.27
2019-03-09T16:57:43.333Z,76.81
2019-03-09T17:00:24.717Z,76.95
2019-03-09T17:02:53.195Z,76.54
2019-03-09T17:05:21.635Z,77.21
2019-03-09T17:07:50.030Z,76.43
2019-03-09T17:10:19.501Z,76.69
2019-03-09T17:12:48.245Z,76.04
2019-03-09T17:15:21.852Z,76.16
2019-03-09T17:17:50.320Z,76.05
2019-03-09T17:20:18.989Z,76.40
2019-03-09T17:22:47.398Z,76.33
2019-03-09T17:25:16.286Z,76.55
2019-03-09T17:27:44.699Z,76.43
2019-03-09T17:30:15.619Z,76.43
2019-03-09T17:32:44.111Z,76.65
2019-03-09T17:35:13.042Z,76.51
2019-03-09T17:37:41.473Z,76.69
2019-03-09T17:40:12.362Z,76.48
2019-03-09T17:42:40.835Z,76.48
2019-03-09T17:45:12.357Z,76.23
2019-03-09T17:47:40.770Z,76.62
2019-03-09T17:50:11.812Z,76.76
2019-03-09T17:52:40.202Z,76.48
2019-03-09T17:55:10.258Z,76.66
2019-03-09T17:57:38.805Z,77.18
2019-03-09T18:00:13.582Z,77.67
2019-03-09T18:02:42.084Z,77.23
2019-03-09T18:05:10.481Z,76.63
2019-03-09T18:07:38.888Z,75.92
2019-03-09T18:10:10.718Z,75.33
2019-03-09T18:12:40.520Z,75.51
2019-03-09T18:15:10.111Z,74.26
2019-03-09T18:17:38.524Z,72.53
2019-03-09T18:20:09.576Z,72.72
2019-03-09T18:22:38.008Z,72.89
2019-03-09T18:25:07.382Z,73.33
2019-03-09T18:27:35.834Z,72.33
2019-03-09T18:30:06.198Z,72.51
2019-03-09T18:32:34.651Z,73.67
2019-03-09T18:35:03.096Z,73.83
2019-03-09T18:37:31.712Z,74.11
2019-03-09T18:40:00.320Z,74.46
2019-03-09T18:42:28.688Z,74.30
2019-03-09T18:44:57.087Z,74.78
2019-03-09T18:47:25.659Z,72.93
2019-03-09T18:49:54.076Z,73.75
2019-03-09T18:52:22.579Z,73.50
2019-03-09T18:54:51.052Z,73.52
2019-03-09T18:57:19.506Z,71.45
2019-03-09T18:59:47.905Z,70.99
2019-03-09T19:02:16.387Z,70.72
2019-03-09T19:04:44.809Z,70.67
2019-03-09T19:07:13.208Z,70.68
2019-03-09T19:09:41.660Z,71.25
2019-03-09T19:12:10.131Z,71.47
2019-03-09T19:14:38.546Z,71.35
2019-03-09T19:17:06.945Z,72.28
2019-03-09T19:19:35.625Z,72.51
2019-03-09T19:22:04.110Z,72.48
2019-03-09T19:24:32.539Z,72.40
2019-03-09T19:27:01.069Z,72.54
2019-03-09T19:29:29.493Z,72.35
2019-03-09T19:31:57.901Z,71.82
2019-03-09T19:34:26.408Z,71.80
2019-03-09T19:36:54.808Z,71.62
2019-03-09T19:39:23.294Z,70.86
2019-03-09T19:41:51.716Z,71.63
2019-03-09T19:44:20.131Z,71.31
2019-03-09T19:46:48.546Z,71.77
2019-03-09T19:49:16.941Z,71.67
2019-03-09T19:51:45.378Z,71.80
2019-03-09T19:54:13.822Z,72.24
2019-03-09T19:56:42.218Z,72.04
2019-03-09T19:59:10.612Z,71.91
2019-03-09T20:01:39.030Z,71.87
2019-03-09T20:04:07.540Z,71.45
2019-03-09T20:06:35.945Z,71.36
2019-03-09T20:09:06.281Z,71.73
2019-03-09T20:11:34.758Z,71.42
2019-03-09T20:14:03.219Z,71.73
2019-03-09T20:16:31.634Z,71.87
2019-03-09T20:19:00.034Z,71.44
2019-03-09T20:21:28.742Z,70.85
2019-03-09T20:23:57.223Z,71.33
2019-03-09T20:26:25.704Z,71.08
2019-03-09T20:28:54.209Z,71.58
2019-03-09T20:31:22.719Z,71.32
2019-03-09T20:33:51.128Z,71.08
2019-03-09T20:36:19.644Z,70.66
2019-03-09T20:38:48.076Z,70.44
2019-03-09T20:41:16.537Z,70.16
2019-03-09T20:43:44.953Z,70.28
2019-03-09T20:46:13.380Z,69.86
2019-03-09T20:48:41.788Z,69.13
2019-03-09T20:51:10.430Z,68.62
2019-03-09T20:53:38.841Z,69.18
2019-03-09T20:56:07.402Z,69.54
2019-03-09T20:58:35.794Z,69.31
2019-03-09T21:03:34.594Z,69.78
2019-03-09T21:06:03.047Z,69.57
2019-03-09T21:08:31.481Z,70.19
2019-03-09T21:11:03.888Z,70.63
2019-03-09T21:13:30.033Z,71.37
2019-03-09T21:15:58.584Z,71.77
2019-03-09T21:18:26.997Z,72.27
2019-03-09T21:20:55.458Z,72.83
2019-03-09T21:23:25.027Z,73.02
2019-03-09T21:25:53.406Z,73.58
2019-03-09T21:28:21.847Z,73.69
2019-03-09T21:30:50.244Z,73.85
2019-03-09T21:33:18.640Z,74.14
2019-03-09T21:35:47.039Z,74.14
2019-03-09T21:38:15.657Z,74.25
2019-03-09T21:40:44.126Z,73.63
2019-03-09T21:43:12.539Z,73.49
2019-03-09T21:45:40.973Z,73.69
2019-03-09T21:48:09.390Z,73.88
2019-03-09T21:50:37.802Z,73.38
2019-03-09T21:53:06.358Z,73.56
2019-03-09T21:55:34.766Z,73.35
2019-03-09T21:58:03.166Z,73.08
2019-03-09T22:00:31.675Z,72.66
2019-03-09T22:03:00.158Z,72.65
2019-03-09T22:05:28.615Z,72.67
2019-03-09T22:07:57.107Z,72.65
2019-03-09T22:10:25.528Z,72.68
2019-03-09T22:12:53.920Z,72.30
2019-03-09T22:15:22.311Z,72.36
2019-03-09T22:17:50.780Z,71.70
2019-03-09T22:20:20.631Z,71.53
2019-03-09T22:22:49.195Z,71.62
2019-03-09T22:25:17.925Z,71.37
2019-03-09T22:27:46.320Z,71.57
2019-03-09T22:30:20.780Z,71.57
2019-03-09T22:32:49.286Z,71.37
2019-03-09T22:35:17.745Z,71.51
2019-03-09T22:37:46.258Z,71.38
2019-03-09T22:40:18.616Z,70.95
2019-03-09T22:42:47.183Z,70.90
2019-03-09T22:45:16.052Z,70.86
2019-03-09T22:47:44.534Z,70.72
2019-03-09T22:50:17.834Z,70.92
2019-03-09T22:52:46.335Z,70.61
2019-03-09T22:55:14.870Z,70.54
2019-03-09T22:57:43.338Z,70.75
2019-03-09T23:00:14.870Z,70.41
2019-03-09T23:02:44.922Z,70.73
2019-03-09T23:05:13.978Z,71.01
2019-03-09T23:07:42.734Z,70.85
2019-03-09T23:10:16.595Z,71.23
2019-03-09T23:12:45.051Z,71.45
2019-03-09T23:15:15.296Z,71.18
2019-03-09T23:17:44.446Z,71.26
2019-03-09T23:20:14.970Z,71.67
2019-03-09T23:22:43.559Z,71.57
2019-03-09T23:25:13.388Z,71.55
2019-03-09T23:27:41.966Z,71.68
2019-03-09T23:30:13.422Z,72.03
2019-03-09T23:32:41.840Z,72.22
2019-03-09T23:35:10.396Z,72.48
2019-03-09T23:37:38.881Z,72.93
2019-03-09T23:40:12.726Z,72.72
2019-03-09T23:42:41.194Z,72.81
2019-03-09T23:45:15.320Z,72.70
2019-03-09T23:47:43.960Z,72.92
2019-03-09T23:50:14.614Z,72.94
2019-03-09T23:52:43.155Z,73.55
2019-03-09T23:55:21.285Z,74.00
2019-03-09T23:57:42.303Z,74.01
